createdAt,value
2023-05-21T00:00:22.340Z,3.55
2023-05-21T00:02:48.845Z,3.83
2023-05-21T00:05:17.145Z,4.07
2023-05-21T00:07:44.469Z,5.70
2023-05-21T00:10:11.365Z,5.32
2023-05-21T00:12:37.825Z,4.60
2023-05-21T00:15:04.715Z,3.28
2023-05-21T00:17:31.154Z,3.63
2023-05-21T00:19:57.596Z,3.80
2023-05-21T00:22:24.144Z,6.25
2023-05-21T00:24:50.760Z,4.57
2023-05-21T00:27:17.364Z,3.05
2023-05-21T00:29:44.460Z,3.20
2023-05-21T00:32:11.158Z,4.72
2023-05-21T00:34:38.273Z,3.42
2023-05-21T00:37:04.788Z,3.47
2023-05-21T00:39:31.213Z,4.10
2023-05-21T00:41:57.719Z,3.57
2023-05-21T00:44:25.333Z,3.53
2023-05-21T00:46:53.903Z,4.07
2023-05-21T00:49:22.424Z,5.63
2023-05-21T00:51:49.612Z,4.72
2023-05-21T00:54:16.084Z,4.23
2023-05-21T00:56:42.613Z,4.15
2023-05-21T00:59:09.149Z,5.28
2023-05-21T01:01:36.928Z,5.07
2023-05-21T01:04:03.809Z,4.63
2023-05-21T01:06:30.251Z,4.53
2023-05-21T01:08:57.249Z,4.43
2023-05-21T01:11:31.737Z,4.13
2023-05-21T01:13:58.281Z,5.22
2023-05-21T01:16:25.125Z,4.60
2023-05-21T01:18:53.949Z,3.47
2023-05-21T01:21:25.166Z,3.30
2023-05-21T01:23:52.005Z,4.18
2023-05-21T01:26:18.455Z,4.47
2023-05-21T01:28:44.861Z,3.65
2023-05-21T01:31:26.536Z,5.30
2023-05-21T01:33:56.911Z,4.72
2023-05-21T01:36:29.084Z,5.22
2023-05-21T01:39:14.127Z,3.65
2023-05-21T01:41:45.004Z,4.55
2023-05-21T01:44:12.826Z,5.40
2023-05-21T01:46:40.025Z,3.97
2023-05-21T01:49:08.478Z,4.70
2023-05-21T01:51:35.859Z,4.35
2023-05-21T01:54:02.567Z,5.97
2023-05-21T01:56:29.181Z,6.60
2023-05-21T01:58:59.828Z,5.15
2023-05-21T02:01:27.459Z,4.55
2023-05-21T02:03:54.051Z,4.78
2023-05-21T02:06:20.811Z,5.97
2023-05-21T02:08:48.423Z,6.63
2023-05-21T02:11:14.911Z,5.60
2023-05-21T02:13:42.712Z,6.00
2023-05-21T02:16:14.776Z,5.05
2023-05-21T02:18:43.596Z,5.97
2023-05-21T02:21:11.520Z,5.47
2023-05-21T02:23:38.650Z,6.55
2023-05-21T02:26:05.473Z,4.90
2023-05-21T02:28:32.776Z,4.72
2023-05-21T02:30:59.212Z,5.65
2023-05-21T02:33:26.196Z,3.90
2023-05-21T02:35:52.634Z,4.50
2023-05-21T02:38:23.218Z,4.57
2023-05-21T02:40:53.510Z,6.78
2023-05-21T02:43:20.246Z,5.75
2023-05-21T02:45:46.713Z,5.50
2023-05-21T02:48:13.373Z,4.75
2023-05-21T02:50:39.918Z,6.45
2023-05-21T02:53:06.351Z,4.95
2023-05-21T02:55:32.810Z,7.25
2023-05-21T02:57:59.237Z,5.47
2023-05-21T03:00:25.652Z,4.88
2023-05-21T03:02:52.175Z,5.10
2023-05-21T03:05:18.689Z,6.40
2023-05-21T03:07:45.131Z,5.32
2023-05-21T03:10:11.699Z,4.70
2023-05-21T03:12:38.153Z,5.20
2023-05-21T03:15:05.125Z,4.65
2023-05-21T03:17:32.385Z,4.63
2023-05-21T03:19:58.906Z,4.63
2023-05-21T03:22:25.343Z,4.97
2023-05-21T03:24:53.378Z,5.30
2023-05-21T03:27:19.842Z,9.45
2023-05-21T03:29:46.295Z,5.60
2023-05-21T03:32:13.367Z,7.18
2023-05-21T03:34:39.931Z,6.47
2023-05-21T03:37:06.576Z,4.57
2023-05-21T03:39:33.023Z,6.40
2023-05-21T03:41:59.480Z,5.05
2023-05-21T03:44:25.995Z,5.20
2023-05-21T03:46:52.437Z,4.90
2023-05-21T03:49:20.557Z,5.28
2023-05-21T03:51:47.003Z,3.92
2023-05-21T03:54:13.408Z,4.88
2023-05-21T03:56:39.839Z,5.35
2023-05-21T03:59:06.306Z,6.70
2023-05-21T04:01:33.201Z,5.78
2023-05-21T04:03:59.891Z,4.88
2023-05-21T04:06:26.403Z,5.47
2023-05-21T04:08:52.846Z,5.15
2023-05-21T04:11:19.294Z,3.87
2023-05-21T04:13:46.255Z,5.05
2023-05-21T04:16:14.651Z,5.25
2023-05-21T04:18:45.645Z,5.28
2023-05-21T04:21:12.426Z,4.43
2023-05-21T04:23:38.839Z,4.70
2023-05-21T04:26:05.317Z,5.00
2023-05-21T04:28:31.760Z,5.85
2023-05-21T04:30:58.709Z,5.00
2023-05-21T04:33:25.645Z,5.47
2023-05-21T04:35:52.187Z,5.10
2023-05-21T04:38:19.773Z,4.63
2023-05-21T04:40:52.552Z,4.57
2023-05-21T04:43:25.995Z,6.68
2023-05-21T04:45:55.726Z,7.20
2023-05-21T04:48:24.779Z,5.23
2023-05-21T04:50:52.093Z,5.85
2023-05-21T04:53:18.507Z,4.88
2023-05-21T04:55:45.069Z,5.82
2023-05-21T04:58:11.559Z,4.55
2023-05-21T05:00:38.968Z,4.63
2023-05-21T05:03:05.931Z,5.25
2023-05-21T05:05:32.465Z,5.55
2023-05-21T05:07:58.989Z,5.18
2023-05-21T05:10:25.584Z,4.53
2023-05-21T05:12:52.033Z,5.67
2023-05-21T05:15:18.534Z,4.72
2023-05-21T05:17:45.030Z,6.35
2023-05-21T05:20:11.836Z,6.22
2023-05-21T05:22:38.278Z,5.15
2023-05-21T05:25:06.338Z,4.47
2023-05-21T05:27:32.773Z,5.43
2023-05-21T05:29:59.317Z,5.25
2023-05-21T05:32:25.784Z,5.03
2023-05-21T05:34:52.213Z,4.45
2023-05-21T05:37:18.699Z,5.77
2023-05-21T05:39:45.184Z,5.68
2023-05-21T05:42:11.607Z,6.38
2023-05-21T05:44:38.094Z,4.65
2023-05-21T05:47:09.105Z,5.32
2023-05-21T05:49:36.050Z,7.80
2023-05-21T05:52:02.651Z,6.15
2023-05-21T05:54:29.058Z,7.15
2023-05-21T05:56:55.450Z,7.18
2023-05-21T05:59:21.878Z,6.40
2023-05-21T06:01:48.388Z,8.03
2023-05-21T06:04:14.854Z,5.65
2023-05-21T06:06:42.067Z,7.43
2023-05-21T06:09:08.470Z,5.95
2023-05-21T06:11:35.061Z,6.70
2023-05-21T06:14:01.951Z,7.30
2023-05-21T06:16:31.430Z,4.88
2023-05-21T06:18:58.208Z,8.00
2023-05-21T06:21:24.625Z,7.35
2023-05-21T06:23:51.177Z,7.15
2023-05-21T06:26:19.251Z,8.33
2023-05-21T06:28:45.759Z,6.10
2023-05-21T06:31:12.178Z,5.70
2023-05-21T06:33:38.721Z,6.43
2023-05-21T06:36:05.536Z,7.80
2023-05-21T06:38:31.959Z,6.37
2023-05-21T06:40:58.554Z,6.28
2023-05-21T06:43:25.142Z,6.25
2023-05-21T06:45:51.609Z,5.78
2023-05-21T06:48:18.244Z,6.38
2023-05-21T06:50:44.665Z,6.73
2023-05-21T06:53:11.092Z,6.40
2023-05-21T06:55:37.839Z,8.73
2023-05-21T06:58:04.497Z,7.55
2023-05-21T07:00:31.153Z,5.57
2023-05-21T07:02:57.648Z,6.90
2023-05-21T07:05:24.329Z,7.43
2023-05-21T07:07:50.983Z,7.75
2023-05-21T07:10:17.517Z,6.05
2023-05-21T07:12:43.937Z,6.78
2023-05-21T07:15:10.934Z,9.23
2023-05-21T07:17:37.638Z,9.70
2023-05-21T07:20:08.950Z,7.22
2023-05-21T07:22:38.527Z,7.00
2023-05-21T07:25:06.396Z,10.68
2023-05-21T07:27:32.832Z,6.57
2023-05-21T07:29:59.274Z,7.18
2023-05-21T07:32:26.775Z,7.75
2023-05-21T07:34:54.292Z,7.88
2023-05-21T07:37:21.311Z,7.43
2023-05-21T07:39:47.785Z,7.30
2023-05-21T07:42:14.227Z,6.20
2023-05-21T07:44:40.747Z,6.90
2023-05-21T07:47:07.164Z,7.47
2023-05-21T07:49:33.594Z,5.75
2023-05-21T07:52:00.058Z,6.20
2023-05-21T07:54:26.481Z,6.65
2023-05-21T07:56:52.925Z,7.65
2023-05-21T07:59:19.359Z,7.75
2023-05-21T08:01:46.166Z,7.75
2023-05-21T08:04:12.766Z,8.63
2023-05-21T08:06:39.380Z,6.68
2023-05-21T08:09:06.692Z,7.68
2023-05-21T08:11:33.281Z,7.88
2023-05-21T08:13:59.940Z,7.10
2023-05-21T08:16:26.848Z,7.63
2023-05-21T08:18:53.428Z,8.57
2023-05-21T08:21:19.965Z,6.63
2023-05-21T08:23:46.384Z,6.43
2023-05-21T08:26:12.910Z,6.55
2023-05-21T08:28:39.338Z,7.03
2023-05-21T08:31:05.921Z,7.72
2023-05-21T08:33:37.108Z,5.82
2023-05-21T08:36:05.591Z,6.47
2023-05-21T08:38:32.191Z,8.35
2023-05-21T08:40:59.530Z,8.40
2023-05-21T08:43:27.887Z,5.40
2023-05-21T08:45:55.496Z,7.55
2023-05-21T08:48:25.428Z,7.72
2023-05-21T08:50:53.471Z,7.80
2023-05-21T08:53:28.102Z,5.93
2023-05-21T08:55:57.147Z,6.72
2023-05-21T08:58:23.689Z,6.78
2023-05-21T09:00:50.667Z,6.00
2023-05-21T09:03:17.824Z,6.05
2023-05-21T09:05:45.786Z,7.77
2023-05-21T09:08:19.364Z,6.78
2023-05-21T09:10:50.359Z,8.98
2023-05-21T09:13:18.033Z,6.13
2023-05-21T09:15:45.731Z,9.45
2023-05-21T09:18:12.984Z,5.63
2023-05-21T09:20:40.130Z,7.78
2023-05-21T09:23:12.498Z,7.88
2023-05-21T09:25:39.642Z,6.47
2023-05-21T09:28:12.282Z,7.47
2023-05-21T09:30:44.626Z,7.77
2023-05-21T09:33:11.981Z,5.93
2023-05-21T09:35:44.844Z,7.78
2023-05-21T09:38:11.280Z,6.72
2023-05-21T09:40:44.099Z,6.60
2023-05-21T09:43:14.130Z,9.20
2023-05-21T09:45:51.264Z,8.43
2023-05-21T09:48:17.768Z,8.40
2023-05-21T09:50:46.526Z,7.43
2023-05-21T09:53:15.875Z,5.70
2023-05-21T09:55:42.359Z,6.53
2023-05-21T09:58:10.725Z,7.47
2023-05-21T10:00:37.518Z,5.90
2023-05-21T10:03:09.847Z,7.25
2023-05-21T10:05:37.448Z,8.10
2023-05-21T10:08:04.667Z,5.83
2023-05-21T10:10:32.230Z,7.20
2023-05-21T10:13:09.237Z,6.43
2023-05-21T10:15:41.591Z,6.32
2023-05-21T10:18:13.277Z,6.50
2023-05-21T10:20:40.089Z,5.53
2023-05-21T10:23:07.567Z,7.65
2023-05-21T10:25:34.862Z,6.32
2023-05-21T10:28:01.465Z,12.25
2023-05-21T10:30:28.360Z,9.93
2023-05-21T10:32:57.215Z,8.17
2023-05-21T10:35:24.492Z,5.82
2023-05-21T10:37:51.953Z,6.78
2023-05-21T10:40:18.385Z,7.80
2023-05-21T10:43:00.140Z,6.57
2023-05-21T10:45:48.296Z,8.17
2023-05-21T10:48:37.811Z,8.68
2023-05-21T10:51:19.019Z,6.90
2023-05-21T10:54:15.727Z,8.18
2023-05-21T10:56:48.886Z,6.57
2023-05-21T10:59:25.643Z,7.03
2023-05-21T11:01:53.185Z,8.18
2023-05-21T11:04:26.128Z,7.50
2023-05-21T11:06:52.729Z,6.00
2023-05-21T11:09:20.651Z,7.50
2023-05-21T11:11:58.782Z,8.20
2023-05-21T11:14:39.823Z,8.02
2023-05-21T11:17:06.764Z,6.53
2023-05-21T11:19:51.517Z,7.22
2023-05-21T11:22:22.324Z,7.47
2023-05-21T11:24:51.180Z,7.50
2023-05-21T11:27:34.689Z,7.28
2023-05-21T11:30:08.171Z,6.85
2023-05-21T11:33:23.680Z,7.90
2023-05-21T11:35:50.080Z,7.28
2023-05-21T11:38:18.020Z,6.30
2023-05-21T11:40:54.794Z,8.55
2023-05-21T11:43:21.296Z,7.90
2023-05-21T11:45:47.748Z,6.28
2023-05-21T11:48:14.494Z,11.27
2023-05-21T11:50:42.587Z,8.67
2023-05-21T11:53:09.263Z,8.90
2023-05-21T11:55:43.265Z,8.13
2023-05-21T11:58:13.694Z,7.60
2023-05-21T12:00:40.861Z,7.40
2023-05-21T12:03:08.526Z,9.60
2023-05-21T12:05:48.820Z,8.75
2023-05-21T12:08:25.293Z,8.15
2023-05-21T12:10:59.646Z,11.30
2023-05-21T12:13:26.643Z,9.35
2023-05-21T12:15:54.323Z,8.83
2023-05-21T12:18:21.551Z,11.13
2023-05-21T12:20:48.042Z,8.25
2023-05-21T12:23:23.811Z,8.85
2023-05-21T12:25:51.625Z,9.27
2023-05-21T12:28:18.180Z,7.50
2023-05-21T12:30:44.618Z,8.77
2023-05-21T12:33:12.134Z,8.52
2023-05-21T12:35:38.634Z,12.57
2023-05-21T12:38:05.155Z,9.77
2023-05-21T12:40:37.334Z,9.20
2023-05-21T12:43:05.340Z,9.35
2023-05-21T12:45:32.935Z,10.38
2023-05-21T12:48:03.158Z,11.15
2023-05-21T12:50:29.925Z,9.85
2023-05-21T12:52:58.433Z,9.20
2023-05-21T12:55:28.558Z,8.77
2023-05-21T12:58:10.647Z,8.93
2023-05-21T13:00:37.650Z,11.65
2023-05-21T13:03:06.372Z,9.25
2023-05-21T13:05:33.281Z,8.90
2023-05-21T13:07:59.846Z,11.65
2023-05-21T13:10:26.275Z,8.68
2023-05-21T13:12:52.804Z,10.52
2023-05-21T13:15:22.660Z,14.27
2023-05-21T13:17:51.575Z,8.87
2023-05-21T13:20:21.543Z,10.20
2023-05-21T13:22:51.112Z,10.82
2023-05-21T13:25:23.468Z,10.35
2023-05-21T13:27:51.263Z,10.00
2023-05-21T13:30:18.933Z,11.33
2023-05-21T13:32:45.954Z,11.40
2023-05-21T13:35:13.270Z,9.70
2023-05-21T13:37:40.903Z,9.52
2023-05-21T13:40:11.153Z,9.75
2023-05-21T13:42:41.170Z,9.23
2023-05-21T13:45:09.678Z,9.40
2023-05-21T13:47:39.265Z,10.65
2023-05-21T13:50:09.019Z,9.32
2023-05-21T13:52:36.199Z,9.27
2023-05-21T13:55:02.866Z,9.03
2023-05-21T13:57:30.908Z,8.80
2023-05-21T13:59:58.838Z,9.65
2023-05-21T14:02:25.600Z,11.93
2023-05-21T14:04:52.519Z,11.20
2023-05-21T14:07:21.763Z,9.13
2023-05-21T14:09:48.426Z,9.55
2023-05-21T14:12:15.169Z,10.77
2023-05-21T14:14:42.127Z,8.55
2023-05-21T14:17:08.719Z,8.63
2023-05-21T14:19:35.700Z,11.07
2023-05-21T14:22:02.609Z,9.98
2023-05-21T14:24:29.144Z,11.10
2023-05-21T14:26:55.711Z,10.50
2023-05-21T14:29:22.239Z,9.70
2023-05-21T14:31:48.976Z,8.93
2023-05-21T14:34:15.570Z,9.50
2023-05-21T14:36:42.180Z,10.15
2023-05-21T14:39:08.690Z,10.07
2023-05-21T14:41:38.938Z,10.52
2023-05-21T14:44:05.535Z,13.07
2023-05-21T14:46:32.769Z,8.65
2023-05-21T14:49:00.263Z,12.18
2023-05-21T14:51:26.688Z,12.65
2023-05-21T14:53:53.323Z,13.25
2023-05-21T14:56:22.196Z,9.57
2023-05-21T14:58:48.792Z,10.93
2023-05-21T15:01:15.323Z,11.07
2023-05-21T15:03:44.218Z,9.85
2023-05-21T15:06:10.814Z,13.45
2023-05-21T15:08:37.260Z,8.77
2023-05-21T15:11:03.853Z,10.43
2023-05-21T15:13:30.504Z,9.95
2023-05-21T15:15:57.156Z,9.50
2023-05-21T15:18:24.925Z,11.30
2023-05-21T15:20:51.604Z,7.90
2023-05-21T15:23:18.186Z,7.70
2023-05-21T15:25:45.471Z,8.80
2023-05-21T15:28:12.408Z,9.50
2023-05-21T15:30:39.364Z,5.95
2023-05-21T15:33:05.828Z,7.83
2023-05-21T15:35:32.551Z,7.97
2023-05-21T15:37:59.188Z,5.90
2023-05-21T15:40:27.047Z,8.70
2023-05-21T15:42:53.994Z,5.35
2023-05-21T15:45:20.611Z,7.20
2023-05-21T15:47:47.591Z,6.55
2023-05-21T15:50:14.093Z,7.78
2023-05-21T15:52:41.596Z,8.13
2023-05-21T15:55:08.534Z,9.68
2023-05-21T15:57:34.991Z,8.60
2023-05-21T16:00:01.447Z,7.78
2023-05-21T16:02:27.983Z,6.72
2023-05-21T16:04:54.526Z,8.52
2023-05-21T16:07:23.290Z,9.90
2023-05-21T16:09:49.781Z,7.47
2023-05-21T16:12:16.348Z,8.63
2023-05-21T16:14:42.750Z,8.85
2023-05-21T16:17:09.790Z,10.27
2023-05-21T16:19:36.457Z,10.38
2023-05-21T16:22:03.051Z,7.73
2023-05-21T16:24:29.571Z,8.95
2023-05-21T16:26:56.048Z,10.35
2023-05-21T16:29:22.487Z,8.20
2023-05-21T16:31:49.144Z,9.70
2023-05-21T16:34:15.831Z,5.23
2023-05-21T16:36:42.627Z,7.05
2023-05-21T16:39:09.143Z,11.48
2023-05-21T16:41:35.874Z,9.45
2023-05-21T16:44:02.342Z,7.50
2023-05-21T16:46:28.859Z,6.87
2023-05-21T16:48:55.394Z,9.18
2023-05-21T16:51:22.264Z,7.43
2023-05-21T16:53:48.773Z,9.65
2023-05-21T16:56:15.312Z,9.50
2023-05-21T16:58:41.694Z,8.37
2023-05-21T17:01:08.156Z,8.00
2023-05-21T17:03:34.868Z,8.93
2023-05-21T17:06:01.501Z,9.70
2023-05-21T17:08:28.002Z,9.73
2023-05-21T17:10:55.737Z,9.03
2023-05-21T17:13:23.249Z,10.80
2023-05-21T17:15:53.344Z,9.35
2023-05-21T17:18:19.953Z,10.15
2023-05-21T17:20:46.431Z,6.95
2023-05-21T17:23:12.960Z,8.67
2023-05-21T17:25:40.203Z,8.63
2023-05-21T17:28:07.217Z,9.57
2023-05-21T17:30:33.821Z,10.32
2023-05-21T17:33:02.218Z,10.07
2023-05-21T17:35:29.178Z,7.67
2023-05-21T17:37:55.648Z,10.93
2023-05-21T17:40:24.351Z,8.88
2023-05-21T17:42:52.510Z,10.45
2023-05-21T17:45:19.485Z,9.82
2023-05-21T17:47:46.336Z,10.17
2023-05-21T17:50:12.975Z,10.48
2023-05-21T17:52:39.522Z,9.88
2023-05-21T17:55:06.251Z,9.85
2023-05-21T17:57:32.695Z,12.80
2023-05-21T17:59:59.145Z,10.23
2023-05-21T18:02:27.399Z,10.43
2023-05-21T18:04:54.087Z,11.60
2023-05-21T18:07:20.524Z,12.05
2023-05-21T18:09:46.971Z,11.48
2023-05-21T18:12:13.420Z,10.10
2023-05-21T18:14:39.872Z,9.63
2023-05-21T18:17:06.886Z,11.85
2023-05-21T18:19:33.412Z,15.43
2023-05-21T18:21:59.849Z,12.38
2023-05-21T18:24:26.398Z,12.60
2023-05-21T18:26:52.921Z,14.27
2023-05-21T18:29:19.364Z,12.25
2023-05-21T18:31:46.044Z,12.75
2023-05-21T18:34:12.631Z,9.63
2023-05-21T18:36:40.074Z,12.80
2023-05-21T18:39:07.701Z,10.98
2023-05-21T18:41:34.385Z,15.48
2023-05-21T18:44:01.950Z,13.13
2023-05-21T18:46:29.224Z,13.88
2023-05-21T18:48:56.419Z,11.87
2023-05-21T18:51:22.899Z,13.48
2023-05-21T18:53:49.459Z,12.80
2023-05-21T18:56:16.020Z,12.25
2023-05-21T18:58:42.451Z,14.52
2023-05-21T19:01:08.915Z,12.13
2023-05-21T19:03:35.555Z,14.40
2023-05-21T19:06:02.151Z,14.90
2023-05-21T19:08:28.572Z,14.13
2023-05-21T19:10:55.193Z,12.45
2023-05-21T19:13:22.567Z,15.63
2023-05-21T19:15:49.092Z,17.67
2023-05-21T19:18:17.208Z,18.25
2023-05-21T19:20:43.773Z,17.23
2023-05-21T19:23:10.501Z,14.32
2023-05-21T19:25:36.943Z,15.87
2023-05-21T19:28:03.479Z,17.88
2023-05-21T19:30:29.926Z,14.07
2023-05-21T19:32:56.412Z,13.60
2023-05-21T19:35:22.914Z,15.85
2023-05-21T19:37:49.872Z,15.83
2023-05-21T19:40:17.625Z,16.30
2023-05-21T19:42:44.574Z,14.43
2023-05-21T19:45:11.730Z,15.82
2023-05-21T19:47:40.988Z,17.95
2023-05-21T19:50:08.135Z,15.47
2023-05-21T19:52:34.571Z,16.02
2023-05-21T19:55:04.784Z,15.52
2023-05-21T19:57:32.414Z,15.50
2023-05-21T19:59:59.096Z,17.80
2023-05-21T20:02:25.746Z,15.27
2023-05-21T20:04:53.428Z,17.02
2023-05-21T20:07:19.877Z,23.63
2023-05-21T20:09:46.599Z,22.17
2023-05-21T20:12:13.047Z,15.43
2023-05-21T20:14:39.513Z,16.50
2023-05-21T20:17:06.301Z,14.43
2023-05-21T20:19:32.968Z,15.23
2023-05-21T20:21:59.516Z,15.18
2023-05-21T20:24:26.047Z,15.88
2023-05-21T20:26:52.492Z,16.13
2023-05-21T20:29:18.951Z,14.02
2023-05-21T20:31:45.566Z,15.00
2023-05-21T20:34:12.239Z,15.00
2023-05-21T20:36:40.358Z,18.13
2023-05-21T20:39:07.457Z,16.03
2023-05-21T20:41:37.559Z,17.35
2023-05-21T20:44:05.228Z,15.10
2023-05-21T20:46:33.020Z,15.85
2023-05-21T20:49:00.324Z,15.35
2023-05-21T20:51:27.302Z,13.70
2023-05-21T20:53:53.806Z,16.08
2023-05-21T20:56:29.841Z,13.55
2023-05-21T20:59:08.562Z,16.90
2023-05-21T21:01:37.969Z,12.93
2023-05-21T21:04:05.062Z,15.03
2023-05-21T21:06:31.840Z,15.55
2023-05-21T21:08:58.458Z,15.60
2023-05-21T21:11:24.957Z,15.82
2023-05-21T21:13:51.865Z,16.63
2023-05-21T21:16:18.631Z,18.00
2023-05-21T21:18:47.002Z,17.15
2023-05-21T21:21:13.605Z,17.98
2023-05-21T21:23:40.237Z,17.80
2023-05-21T21:26:07.119Z,13.80
2023-05-21T21:28:33.535Z,16.20
2023-05-21T21:31:00.117Z,16.42
2023-05-21T21:33:26.881Z,15.75
2023-05-21T21:35:53.392Z,17.27
2023-05-21T21:38:19.844Z,16.75
2023-05-21T21:40:46.287Z,17.63
2023-05-21T21:43:12.719Z,13.77
2023-05-21T21:45:39.192Z,16.02
2023-05-21T21:48:05.940Z,15.60
2023-05-21T21:50:32.446Z,17.50
2023-05-21T21:52:59.876Z,16.43
2023-05-21T21:55:26.571Z,16.33
2023-05-21T21:57:53.005Z,13.93
2023-05-21T22:00:19.667Z,17.65
2023-05-21T22:02:49.061Z,15.43
2023-05-21T22:05:15.603Z,15.60
2023-05-21T22:07:46.420Z,16.13
2023-05-21T22:10:15.156Z,15.13
2023-05-21T22:12:42.458Z,20.20
2023-05-21T22:15:18.305Z,18.20
2023-05-21T22:17:44.953Z,17.67
2023-05-21T22:20:11.504Z,18.75
2023-05-21T22:22:37.967Z,16.92
2023-05-21T22:25:04.722Z,17.60
2023-05-21T22:27:31.126Z,17.58
2023-05-21T22:29:57.566Z,17.17
2023-05-21T22:32:24.005Z,17.30
2023-05-21T22:34:50.447Z,20.00
2023-05-21T22:37:17.802Z,17.60
2023-05-21T22:39:44.288Z,16.55
2023-05-21T22:42:11.090Z,16.43
2023-05-21T22:44:37.545Z,14.30
2023-05-21T22:47:04.188Z,19.95
2023-05-21T22:49:32.699Z,17.90
2023-05-21T22:52:05.360Z,19.35
2023-05-21T22:54:32.770Z,17.17
2023-05-21T22:56:59.826Z,17.00
2023-05-21T22:59:26.460Z,18.80
2023-05-21T23:01:54.154Z,17.58
2023-05-21T23:04:35.685Z,16.00
2023-05-21T23:07:06.601Z,24.60
2023-05-21T23:09:33.102Z,17.80
2023-05-21T23:11:59.547Z,21.73
2023-05-21T23:14:25.996Z,18.38
2023-05-21T23:16:53.866Z,17.75
2023-05-21T23:19:21.227Z,21.20
2023-05-21T23:21:47.724Z,16.95
2023-05-21T23:24:14.152Z,18.63
2023-05-21T23:26:40.743Z,19.42
2023-05-21T23:29:07.184Z,19.83
2023-05-21T23:31:33.677Z,19.07
2023-05-21T23:34:01.614Z,19.20
2023-05-21T23:36:28.069Z,19.27
2023-05-21T23:38:54.503Z,24.20
2023-05-21T23:41:21.083Z,24.30
2023-05-21T23:43:47.508Z,20.90
2023-05-21T23:46:14.108Z,21.40
2023-05-21T23:48:40.666Z,19.83
2023-05-21T23:51:07.095Z,19.08
2023-05-21T23:53:33.580Z,21.20
2023-05-21T23:56:00.083Z,22.27
2023-05-21T23:58:26.536Z,22.50
